sensor_id;sensor_type;location;lat;lon;timestamp;P1;durP1;ratioP1;P2;durP2;ratioP2
37309;SDS011;23195;47.744;7.358;2023-07-13T00:00:34;5.07;;;1.60;;
37309;SDS011;23195;47.744;7.358;2023-07-13T00:03:01;2.90;;;1.90;;
37309;SDS011;23195;47.744;7.358;2023-07-13T00:05:27;3.27;;;1.73;;
37309;SDS011;23195;47.744;7.358;2023-07-13T00:07:53;2.60;;;1.90;;
37309;SDS011;23195;47.744;7.358;2023-07-13T00:10:19;3.50;;;2.07;;
37309;SDS011;23195;47.744;7.358;2023-07-13T00:12:45;3.63;;;2.00;;
37309;SDS011;23195;47.744;7.358;2023-07-13T00:15:13;5.87;;;2.00;;
37309;SDS011;23195;47.744;7.358;2023-07-13T00:17:41;4.13;;;2.20;;
37309;SDS011;23195;47.744;7.358;2023-07-13T00:20:10;2.13;;;1.80;;
37309;SDS011;23195;47.744;7.358;2023-07-13T00:22:36;4.83;;;2.10;;
37309;SDS011;23195;47.744;7.358;2023-07-13T00:25:02;4.17;;;1.73;;
37309;SDS011;23195;47.744;7.358;2023-07-13T00:27:28;6.80;;;2.23;;
37309;SDS011;23195;47.744;7.358;2023-07-13T00:29:57;8.03;;;2.10;;
37309;SDS011;23195;47.744;7.358;2023-07-13T00:32:23;7.83;;;1.90;;
37309;SDS011;23195;47.744;7.358;2023-07-13T00:34:50;3.50;;;2.03;;
37309;SDS011;23195;47.744;7.358;2023-07-13T00:37:17;1.97;;;1.73;;
37309;SDS011;23195;47.744;7.358;2023-07-13T00:39:42;5.17;;;2.10;;
37309;SDS011;23195;47.744;7.358;2023-07-13T00:42:08;4.03;;;2.30;;
37309;SDS011;23195;47.744;7.358;2023-07-13T00:44:34;2.50;;;1.90;;
37309;SDS011;23195;47.744;7.358;2023-07-13T00:47:00;4.23;;;2.17;;
37309;SDS011;23195;47.744;7.358;2023-07-13T00:49:27;3.03;;;1.90;;
37309;SDS011;23195;47.744;7.358;2023-07-13T00:51:58;7.07;;;2.03;;
37309;SDS011;23195;47.744;7.358;2023-07-13T00:54:32;3.80;;;1.90;;
37309;SDS011;23195;47.744;7.358;2023-07-13T00:57:03;3.47;;;1.90;;
37309;SDS011;23195;47.744;7.358;2023-07-13T00:59:33;4.17;;;1.60;;
37309;SDS011;23195;47.744;7.358;2023-07-13T01:02:00;6.43;;;2.10;;
37309;SDS011;23195;47.744;7.358;2023-07-13T01:04:26;2.60;;;1.90;;
37309;SDS011;23195;47.744;7.358;2023-07-13T01:06:52;4.73;;;1.93;;
37309;SDS011;23195;47.744;7.358;2023-07-13T01:09:19;4.73;;;1.90;;
37309;SDS011;23195;47.744;7.358;2023-07-13T01:11:45;3.10;;;2.07;;
37309;SDS011;23195;47.744;7.358;2023-07-13T01:14:12;3.47;;;1.80;;
37309;SDS011;23195;47.744;7.358;2023-07-13T01:16:39;7.83;;;2.03;;
37309;SDS011;23195;47.744;7.358;2023-07-13T01:19:12;3.57;;;1.90;;
37309;SDS011;23195;47.744;7.358;2023-07-13T01:21:51;4.13;;;1.70;;
37309;SDS011;23195;47.744;7.358;2023-07-13T01:24:17;3.27;;;2.00;;
37309;SDS011;23195;47.744;7.358;2023-07-13T01:26:43;5.33;;;2.10;;
37309;SDS011;23195;47.744;7.358;2023-07-13T01:29:09;3.37;;;1.90;;
37309;SDS011;23195;47.744;7.358;2023-07-13T01:31:35;2.73;;;1.80;;
37309;SDS011;23195;47.744;7.358;2023-07-13T01:34:01;2.40;;;1.70;;
37309;SDS011;23195;47.744;7.358;2023-07-13T01:36:26;4.17;;;1.97;;
37309;SDS011;23195;47.744;7.358;2023-07-13T01:38:52;3.30;;;1.90;;
37309;SDS011;23195;47.744;7.358;2023-07-13T01:41:18;3.43;;;1.87;;
37309;SDS011;23195;47.744;7.358;2023-07-13T01:43:43;4.93;;;1.90;;
37309;SDS011;23195;47.744;7.358;2023-07-13T01:46:09;4.97;;;1.83;;
37309;SDS011;23195;47.744;7.358;2023-07-13T01:48:35;2.70;;;1.60;;
37309;SDS011;23195;47.744;7.358;2023-07-13T01:51:01;2.57;;;1.67;;
37309;SDS011;23195;47.744;7.358;2023-07-13T01:53:27;2.40;;;1.67;;
37309;SDS011;23195;47.744;7.358;2023-07-13T01:55:53;5.30;;;1.80;;
37309;SDS011;23195;47.744;7.358;2023-07-13T01:58:18;2.80;;;1.87;;
37309;SDS011;23195;47.744;7.358;2023-07-13T02:00:44;2.27;;;1.67;;
37309;SDS011;23195;47.744;7.358;2023-07-13T02:03:12;3.03;;;1.93;;
37309;SDS011;23195;47.744;7.358;2023-07-13T02:05:42;4.27;;;1.70;;
37309;SDS011;23195;47.744;7.358;2023-07-13T02:08:09;7.83;;;1.93;;
37309;SDS011;23195;47.744;7.358;2023-07-13T02:10:36;3.87;;;2.40;;
37309;SDS011;23195;47.744;7.358;2023-07-13T02:13:04;4.33;;;1.60;;
37309;SDS011;23195;47.744;7.358;2023-07-13T02:15:31;4.40;;;1.80;;
37309;SDS011;23195;47.744;7.358;2023-07-13T02:17:57;4.73;;;2.00;;
37309;SDS011;23195;47.744;7.358;2023-07-13T02:20:23;3.23;;;1.67;;
37309;SDS011;23195;47.744;7.358;2023-07-13T02:22:51;3.97;;;2.10;;
37309;SDS011;23195;47.744;7.358;2023-07-13T02:25:17;5.13;;;2.03;;
37309;SDS011;23195;47.744;7.358;2023-07-13T02:27:42;3.30;;;1.80;;
37309;SDS011;23195;47.744;7.358;2023-07-13T02:30:11;2.33;;;1.67;;
37309;SDS011;23195;47.744;7.358;2023-07-13T02:32:37;3.00;;;1.60;;
37309;SDS011;23195;47.744;7.358;2023-07-13T02:35:03;3.30;;;1.77;;
37309;SDS011;23195;47.744;7.358;2023-07-13T02:37:29;4.77;;;2.10;;
37309;SDS011;23195;47.744;7.358;2023-07-13T02:39:55;8.17;;;2.23;;
37309;SDS011;23195;47.744;7.358;2023-07-13T02:42:21;4.93;;;2.07;;
37309;SDS011;23195;47.744;7.358;2023-07-13T02:44:46;5.13;;;2.10;;
37309;SDS011;23195;47.744;7.358;2023-07-13T02:47:13;3.53;;;2.40;;
37309;SDS011;23195;47.744;7.358;2023-07-13T02:49:38;4.23;;;2.20;;
37309;SDS011;23195;47.744;7.358;2023-07-13T02:52:04;4.50;;;2.10;;
37309;SDS011;23195;47.744;7.358;2023-07-13T02:54:30;4.60;;;2.23;;
37309;SDS011;23195;47.744;7.358;2023-07-13T02:56:56;2.10;;;1.67;;
37309;SDS011;23195;47.744;7.358;2023-07-13T02:59:22;2.73;;;1.90;;
37309;SDS011;23195;47.744;7.358;2023-07-13T03:01:47;2.57;;;2.00;;
37309;SDS011;23195;47.744;7.358;2023-07-13T03:04:13;1.60;;;1.50;;
37309;SDS011;23195;47.744;7.358;2023-07-13T03:06:39;2.00;;;1.73;;
37309;SDS011;23195;47.744;7.358;2023-07-13T03:09:05;2.93;;;1.73;;
37309;SDS011;23195;47.744;7.358;2023-07-13T03:11:30;5.13;;;1.80;;
37309;SDS011;23195;47.744;7.358;2023-07-13T03:13:57;2.07;;;1.63;;
37309;SDS011;23195;47.744;7.358;2023-07-13T03:16:23;4.07;;;1.97;;
37309;SDS011;23195;47.744;7.358;2023-07-13T03:18:48;2.97;;;1.80;;
37309;SDS011;23195;47.744;7.358;2023-07-13T03:21:15;2.60;;;1.80;;
37309;SDS011;23195;47.744;7.358;2023-07-13T03:23:41;2.63;;;1.63;;
37309;SDS011;23195;47.744;7.358;2023-07-13T03:26:11;3.93;;;1.53;;
37309;SDS011;23195;47.744;7.358;2023-07-13T03:28:41;5.03;;;1.70;;
37309;SDS011;23195;47.744;7.358;2023-07-13T03:31:09;10.23;;;2.10;;
37309;SDS011;23195;47.744;7.358;2023-07-13T03:33:36;3.63;;;1.70;;
37309;SDS011;23195;47.744;7.358;2023-07-13T03:36:03;5.97;;;1.77;;
37309;SDS011;23195;47.744;7.358;2023-07-13T03:38:30;1.93;;;1.30;;
37309;SDS011;23195;47.744;7.358;2023-07-13T03:40:57;2.87;;;1.67;;
37309;SDS011;23195;47.744;7.358;2023-07-13T03:43:23;4.80;;;1.80;;
37309;SDS011;23195;47.744;7.358;2023-07-13T03:45:48;3.40;;;2.17;;
37309;SDS011;23195;47.744;7.358;2023-07-13T03:48:14;4.00;;;2.23;;
37309;SDS011;23195;47.744;7.358;2023-07-13T03:50:40;7.23;;;1.90;;
37309;SDS011;23195;47.744;7.358;2023-07-13T03:53:06;4.00;;;1.47;;
37309;SDS011;23195;47.744;7.358;2023-07-13T03:55:32;4.07;;;1.60;;
37309;SDS011;23195;47.744;7.358;2023-07-13T03:57:59;3.53;;;1.57;;
37309;SDS011;23195;47.744;7.358;2023-07-13T04:00:45;4.27;;;1.67;;
37309;SDS011;23195;47.744;7.358;2023-07-13T04:03:11;3.93;;;1.67;;
37309;SDS011;23195;47.744;7.358;2023-07-13T04:05:37;3.40;;;1.80;;
37309;SDS011;23195;47.744;7.358;2023-07-13T04:08:05;5.10;;;1.67;;
37309;SDS011;23195;47.744;7.358;2023-07-13T04:10:31;4.37;;;1.63;;
37309;SDS011;23195;47.744;7.358;2023-07-13T04:12:57;3.87;;;1.63;;
37309;SDS011;23195;47.744;7.358;2023-07-13T04:15:22;4.80;;;1.70;;
37309;SDS011;23195;47.744;7.358;2023-07-13T04:17:48;4.60;;;1.63;;
37309;SDS011;23195;47.744;7.358;2023-07-13T04:20:14;3.57;;;1.53;;
37309;SDS011;23195;47.744;7.358;2023-07-13T04:22:40;5.37;;;1.83;;
37309;SDS011;23195;47.744;7.358;2023-07-13T04:25:06;3.73;;;1.70;;
37309;SDS011;23195;47.744;7.358;2023-07-13T04:27:32;3.07;;;1.70;;
37309;SDS011;23195;47.744;7.358;2023-07-13T04:29:57;1.97;;;1.63;;
37309;SDS011;23195;47.744;7.358;2023-07-13T04:32:23;2.40;;;1.60;;
37309;SDS011;23195;47.744;7.358;2023-07-13T04:34:49;3.67;;;1.90;;
37309;SDS011;23195;47.744;7.358;2023-07-13T04:37:18;2.17;;;1.40;;
37309;SDS011;23195;47.744;7.358;2023-07-13T04:39:48;3.63;;;1.90;;
37309;SDS011;23195;47.744;7.358;2023-07-13T04:42:13;4.27;;;1.90;;
37309;SDS011;23195;47.744;7.358;2023-07-13T04:44:39;3.53;;;1.90;;
37309;SDS011;23195;47.744;7.358;2023-07-13T04:47:05;2.07;;;1.40;;
37309;SDS011;23195;47.744;7.358;2023-07-13T04:49:30;4.50;;;1.50;;
37309;SDS011;23195;47.744;7.358;2023-07-13T04:51:56;2.93;;;1.80;;
37309;SDS011;23195;47.744;7.358;2023-07-13T04:54:22;2.83;;;1.73;;
37309;SDS011;23195;47.744;7.358;2023-07-13T04:56:48;4.50;;;1.60;;
37309;SDS011;23195;47.744;7.358;2023-07-13T04:59:16;3.77;;;1.87;;
37309;SDS011;23195;47.744;7.358;2023-07-13T05:01:42;2.47;;;1.50;;
37309;SDS011;23195;47.744;7.358;2023-07-13T05:04:08;4.97;;;1.50;;
37309;SDS011;23195;47.744;7.358;2023-07-13T05:06:33;4.93;;;1.40;;
37309;SDS011;23195;47.744;7.358;2023-07-13T05:08:59;3.87;;;1.30;;
37309;SDS011;23195;47.744;7.358;2023-07-13T05:11:25;2.20;;;1.40;;
37309;SDS011;23195;47.744;7.358;2023-07-13T05:13:50;3.60;;;1.30;;
37309;SDS011;23195;47.744;7.358;2023-07-13T05:16:16;1.50;;;1.10;;
37309;SDS011;23195;47.744;7.358;2023-07-13T05:18:42;3.93;;;1.27;;
37309;SDS011;23195;47.744;7.358;2023-07-13T05:21:09;3.43;;;1.40;;
37309;SDS011;23195;47.744;7.358;2023-07-13T05:23:35;3.10;;;1.03;;
37309;SDS011;23195;47.744;7.358;2023-07-13T05:26:02;2.23;;;1.00;;
37309;SDS011;23195;47.744;7.358;2023-07-13T05:28:29;2.80;;;1.20;;
37309;SDS011;23195;47.744;7.358;2023-07-13T05:30:56;3.80;;;1.30;;
37309;SDS011;23195;47.744;7.358;2023-07-13T05:33:22;2.33;;;1.20;;
37309;SDS011;23195;47.744;7.358;2023-07-13T05:35:48;3.83;;;1.17;;
37309;SDS011;23195;47.744;7.358;2023-07-13T05:38:14;4.50;;;1.50;;
37309;SDS011;23195;47.744;7.358;2023-07-13T05:40:42;1.30;;;1.20;;
37309;SDS011;23195;47.744;7.358;2023-07-13T05:43:08;1.63;;;1.20;;
37309;SDS011;23195;47.744;7.358;2023-07-13T05:45:34;4.37;;;1.30;;
37309;SDS011;23195;47.744;7.358;2023-07-13T05:48:00;3.70;;;1.47;;
37309;SDS011;23195;47.744;7.358;2023-07-13T05:50:26;3.50;;;1.10;;
37309;SDS011;23195;47.744;7.358;2023-07-13T05:52:52;1.93;;;1.20;;
37309;SDS011;23195;47.744;7.358;2023-07-13T05:55:18;2.00;;;1.10;;
37309;SDS011;23195;47.744;7.358;2023-07-13T05:57:44;2.57;;;1.00;;
37309;SDS011;23195;47.744;7.358;2023-07-13T06:00:10;2.77;;;1.40;;
37309;SDS011;23195;47.744;7.358;2023-07-13T06:02:37;3.87;;;1.00;;
37309;SDS011;23195;47.744;7.358;2023-07-13T06:05:02;2.43;;;1.10;;
37309;SDS011;23195;47.744;7.358;2023-07-13T06:07:28;3.77;;;1.10;;
37309;SDS011;23195;47.744;7.358;2023-07-13T06:09:54;3.30;;;1.10;;
37309;SDS011;23195;47.744;7.358;2023-07-13T06:12:20;4.90;;;1.07;;
37309;SDS011;23195;47.744;7.358;2023-07-13T06:14:46;3.07;;;1.20;;
37309;SDS011;23195;47.744;7.358;2023-07-13T06:17:12;3.93;;;1.20;;
37309;SDS011;23195;47.744;7.358;2023-07-13T06:19:37;4.73;;;1.10;;
37309;SDS011;23195;47.744;7.358;2023-07-13T06:22:03;2.20;;;1.13;;
37309;SDS011;23195;47.744;7.358;2023-07-13T06:24:29;4.43;;;1.10;;
37309;SDS011;23195;47.744;7.358;2023-07-13T06:26:55;4.97;;;1.17;;
37309;SDS011;23195;47.744;7.358;2023-07-13T06:29:21;3.83;;;1.13;;
37309;SDS011;23195;47.744;7.358;2023-07-13T06:31:47;4.43;;;1.50;;
37309;SDS011;23195;47.744;7.358;2023-07-13T06:34:13;2.53;;;1.10;;
37309;SDS011;23195;47.744;7.358;2023-07-13T09:25:24;4.07;;;1.27;;
37309;SDS011;23195;47.744;7.358;2023-07-13T09:28:28;4.50;;;1.27;;
37309;SDS011;23195;47.744;7.358;2023-07-13T09:44:12;2.60;;;1.20;;
37309;SDS011;23195;47.744;7.358;2023-07-13T10:10:59;1.40;;;1.10;;
37309;SDS011;23195;47.744;7.358;2023-07-13T10:13:58;3.30;;;1.10;;
37309;SDS011;23195;47.744;7.358;2023-07-13T10:17:08;1.53;;;0.90;;
37309;SDS011;23195;47.744;7.358;2023-07-13T10:20:20;2.97;;;1.40;;
37309;SDS011;23195;47.744;7.358;2023-07-13T10:23:20;3.33;;;1.00;;
37309;SDS011;23195;47.744;7.358;2023-07-13T10:26:27;5.80;;;1.37;;
37309;SDS011;23195;47.744;7.358;2023-07-13T10:29:15;2.70;;;1.30;;
37309;SDS011;23195;47.744;7.358;2023-07-13T10:31:44;6.50;;;1.50;;
37309;SDS011;23195;47.744;7.358;2023-07-13T10:34:46;2.83;;;1.50;;
37309;SDS011;23195;47.744;7.358;2023-07-13T10:44:17;4.47;;;1.23;;
37309;SDS011;23195;47.744;7.358;2023-07-13T10:47:27;3.90;;;1.33;;
37309;SDS011;23195;47.744;7.358;2023-07-13T10:50:19;7.27;;;1.40;;
37309;SDS011;23195;47.744;7.358;2023-07-13T10:52:49;6.00;;;1.30;;
37309;SDS011;23195;47.744;7.358;2023-07-13T10:55:35;6.07;;;1.60;;
37309;SDS011;23195;47.744;7.358;2023-07-13T10:58:32;2.97;;;1.10;;
37309;SDS011;23195;47.744;7.358;2023-07-13T11:01:38;3.30;;;1.47;;
37309;SDS011;23195;47.744;7.358;2023-07-13T11:04:16;3.70;;;1.20;;
37309;SDS011;23195;47.744;7.358;2023-07-13T11:07:09;5.13;;;1.23;;
37309;SDS011;23195;47.744;7.358;2023-07-13T11:10:30;3.23;;;1.50;;
37309;SDS011;23195;47.744;7.358;2023-07-13T11:34:48;2.10;;;1.20;;
37309;SDS011;23195;47.744;7.358;2023-07-13T11:41:48;3.23;;;1.10;;
37309;SDS011;23195;47.744;7.358;2023-07-13T11:44:19;3.07;;;1.50;;
37309;SDS011;23195;47.744;7.358;2023-07-13T11:47:09;2.37;;;1.33;;
37309;SDS011;23195;47.744;7.358;2023-07-13T11:49:55;4.30;;;1.63;;
37309;SDS011;23195;47.744;7.358;2023-07-13T11:55:23;3.87;;;1.40;;
37309;SDS011;23195;47.744;7.358;2023-07-13T11:58:03;2.77;;;1.53;;
37309;SDS011;23195;47.744;7.358;2023-07-13T12:00:36;4.03;;;1.53;;
37309;SDS011;23195;47.744;7.358;2023-07-13T12:03:21;6.57;;;1.30;;
37309;SDS011;23195;47.744;7.358;2023-07-13T12:09:18;6.00;;;1.57;;
37309;SDS011;23195;47.744;7.358;2023-07-13T12:11:50;2.87;;;1.30;;
37309;SDS011;23195;47.744;7.358;2023-07-13T12:14:29;3.57;;;1.40;;
37309;SDS011;23195;47.744;7.358;2023-07-13T12:17:20;3.00;;;1.00;;
37309;SDS011;23195;47.744;7.358;2023-07-13T12:23:14;4.43;;;1.50;;
37309;SDS011;23195;47.744;7.358;2023-07-13T12:26:04;2.97;;;1.50;;
37309;SDS011;23195;47.744;7.358;2023-07-13T12:28:51;2.20;;;1.20;;
37309;SDS011;23195;47.744;7.358;2023-07-13T12:31:48;3.17;;;1.30;;
37309;SDS011;23195;47.744;7.358;2023-07-13T12:34:18;7.73;;;1.60;;
37309;SDS011;23195;47.744;7.358;2023-07-13T12:37:08;3.20;;;1.10;;
37309;SDS011;23195;47.744;7.358;2023-07-13T12:39:45;2.30;;;1.33;;
37309;SDS011;23195;47.744;7.358;2023-07-13T12:42:19;3.20;;;1.40;;
37309;SDS011;23195;47.744;7.358;2023-07-13T12:45:27;2.33;;;1.30;;
37309;SDS011;23195;47.744;7.358;2023-07-13T12:48:14;4.20;;;1.30;;
37309;SDS011;23195;47.744;7.358;2023-07-13T12:51:29;2.37;;;1.30;;
37309;SDS011;23195;47.744;7.358;2023-07-13T12:54:18;4.50;;;1.30;;
37309;SDS011;23195;47.744;7.358;2023-07-13T12:56:52;2.87;;;1.00;;
37309;SDS011;23195;47.744;7.358;2023-07-13T13:06:06;1.63;;;1.20;;
37309;SDS011;23195;47.744;7.358;2023-07-13T13:12:32;4.93;;;1.20;;
37309;SDS011;23195;47.744;7.358;2023-07-13T13:18:23;15.90;;;2.03;;
37309;SDS011;23195;47.744;7.358;2023-07-13T13:21:22;2.23;;;1.30;;
37309;SDS011;23195;47.744;7.358;2023-07-13T13:23:48;4.57;;;1.10;;
37309;SDS011;23195;47.744;7.358;2023-07-13T13:26:16;5.90;;;1.50;;
37309;SDS011;23195;47.744;7.358;2023-07-13T13:28:45;3.50;;;1.47;;
37309;SDS011;23195;47.744;7.358;2023-07-13T13:31:15;3.27;;;1.30;;
37309;SDS011;23195;47.744;7.358;2023-07-13T13:33:42;2.90;;;1.33;;
37309;SDS011;23195;47.744;7.358;2023-07-13T13:36:14;2.30;;;1.27;;
37309;SDS011;23195;47.744;7.358;2023-07-13T13:38:42;4.33;;;1.50;;
37309;SDS011;23195;47.744;7.358;2023-07-13T13:41:12;4.70;;;1.40;;
37309;SDS011;23195;47.744;7.358;2023-07-13T13:43:42;3.10;;;1.20;;
37309;SDS011;23195;47.744;7.358;2023-07-13T13:46:15;1.83;;;1.00;;
37309;SDS011;23195;47.744;7.358;2023-07-13T13:48:54;2.40;;;1.20;;
37309;SDS011;23195;47.744;7.358;2023-07-13T13:51:30;5.03;;;1.37;;
37309;SDS011;23195;47.744;7.358;2023-07-13T13:53:58;2.87;;;1.33;;
37309;SDS011;23195;47.744;7.358;2023-07-13T13:56:43;1.30;;;1.03;;
37309;SDS011;23195;47.744;7.358;2023-07-13T13:59:27;3.10;;;1.13;;
37309;SDS011;23195;47.744;7.358;2023-07-13T14:02:07;2.50;;;1.10;;
37309;SDS011;23195;47.744;7.358;2023-07-13T14:04:56;2.13;;;1.27;;
37309;SDS011;23195;47.744;7.358;2023-07-13T14:07:26;5.37;;;1.07;;
37309;SDS011;23195;47.744;7.358;2023-07-13T14:10:08;4.13;;;1.33;;
37309;SDS011;23195;47.744;7.358;2023-07-13T14:16:02;3.83;;;1.40;;
37309;SDS011;23195;47.744;7.358;2023-07-13T14:18:46;3.23;;;1.30;;
37309;SDS011;23195;47.744;7.358;2023-07-13T14:21:22;3.00;;;1.30;;
37309;SDS011;23195;47.744;7.358;2023-07-13T14:24:17;2.07;;;1.20;;
37309;SDS011;23195;47.744;7.358;2023-07-13T14:33:54;3.77;;;1.30;;
37309;SDS011;23195;47.744;7.358;2023-07-13T14:43:39;4.57;;;1.77;;
37309;SDS011;23195;47.744;7.358;2023-07-13T14:49:38;3.93;;;1.20;;
37309;SDS011;23195;47.744;7.358;2023-07-13T14:56:18;2.33;;;1.00;;
37309;SDS011;23195;47.744;7.358;2023-07-13T14:59:43;4.80;;;1.10;;
37309;SDS011;23195;47.744;7.358;2023-07-13T15:09:33;2.20;;;1.07;;
37309;SDS011;23195;47.744;7.358;2023-07-13T15:12:28;2.27;;;1.13;;
37309;SDS011;23195;47.744;7.358;2023-07-13T15:15:26;4.10;;;1.07;;
37309;SDS011;23195;47.744;7.358;2023-07-13T15:18:07;4.30;;;1.43;;
37309;SDS011;23195;47.744;7.358;2023-07-13T15:21:00;4.67;;;1.10;;
37309;SDS011;23195;47.744;7.358;2023-07-13T15:24:08;2.43;;;1.10;;
37309;SDS011;23195;47.744;7.358;2023-07-13T15:26:53;3.30;;;1.20;;
37309;SDS011;23195;47.744;7.358;2023-07-13T15:29:35;1.50;;;1.00;;
37309;SDS011;23195;47.744;7.358;2023-07-13T15:32:10;2.00;;;1.00;;
37309;SDS011;23195;47.744;7.358;2023-07-13T15:41:25;3.90;;;1.10;;
37309;SDS011;23195;47.744;7.358;2023-07-13T15:43:56;1.50;;;1.13;;
37309;SDS011;23195;47.744;7.358;2023-07-13T15:46:58;2.10;;;1.07;;
37309;SDS011;23195;47.744;7.358;2023-07-13T15:53:15;1.07;;;0.93;;
37309;SDS011;23195;47.744;7.358;2023-07-13T15:56:51;1.93;;;1.30;;
37309;SDS011;23195;47.744;7.358;2023-07-13T16:03:19;6.33;;;1.20;;
37309;SDS011;23195;47.744;7.358;2023-07-13T16:19:16;4.00;;;1.10;;
37309;SDS011;23195;47.744;7.358;2023-07-13T16:22:51;3.60;;;1.20;;
37309;SDS011;23195;47.744;7.358;2023-07-13T16:25:34;3.77;;;0.97;;
37309;SDS011;23195;47.744;7.358;2023-07-13T16:28:26;1.40;;;1.10;;
37309;SDS011;23195;47.744;7.358;2023-07-13T16:34:16;4.30;;;1.20;;
37309;SDS011;23195;47.744;7.358;2023-07-13T16:37:01;3.90;;;1.40;;
37309;SDS011;23195;47.744;7.358;2023-07-13T16:43:19;4.67;;;1.37;;
37309;SDS011;23195;47.744;7.358;2023-07-13T16:52:44;3.53;;;1.40;;
37309;SDS011;23195;47.744;7.358;2023-07-13T17:01:48;4.87;;;1.47;;
37309;SDS011;23195;47.744;7.358;2023-07-13T17:29:09;2.33;;;1.30;;
37309;SDS011;23195;47.744;7.358;2023-07-13T17:49:46;2.77;;;1.60;;
37309;SDS011;23195;47.744;7.358;2023-07-13T17:52:43;3.70;;;1.80;;
37309;SDS011;23195;47.744;7.358;2023-07-13T17:55:39;5.13;;;1.80;;
37309;SDS011;23195;47.744;7.358;2023-07-13T18:01:54;5.67;;;2.37;;
37309;SDS011;23195;47.744;7.358;2023-07-13T18:05:23;2.83;;;2.00;;
37309;SDS011;23195;47.744;7.358;2023-07-13T18:26:46;4.87;;;1.60;;
37309;SDS011;23195;47.744;7.358;2023-07-13T21:32:44;6.60;;;2.33;;
37309;SDS011;23195;47.744;7.358;2023-07-13T21:35:31;7.40;;;3.30;;
37309;SDS011;23195;47.744;7.358;2023-07-13T21:38:12;6.57;;;3.03;;
37309;SDS011;23195;47.744;7.358;2023-07-13T21:40:42;10.13;;;3.40;;
37309;SDS011;23195;47.744;7.358;2023-07-13T21:43:09;5.53;;;2.80;;
37309;SDS011;23195;47.744;7.358;2023-07-13T21:45:36;6.60;;;2.50;;
37309;SDS011;23195;47.744;7.358;2023-07-13T21:48:02;5.67;;;2.57;;
37309;SDS011;23195;47.744;7.358;2023-07-13T21:50:41;6.07;;;2.40;;
37309;SDS011;23195;47.744;7.358;2023-07-13T21:53:21;7.20;;;4.83;;
37309;SDS011;23195;47.744;7.358;2023-07-13T21:55:53;5.47;;;4.00;;
37309;SDS011;23195;47.744;7.358;2023-07-13T21:58:24;7.00;;;3.97;;
37309;SDS011;23195;47.744;7.358;2023-07-13T22:01:04;11.50;;;4.77;;
37309;SDS011;23195;47.744;7.358;2023-07-13T22:04:02;11.50;;;5.67;;
37309;SDS011;23195;47.744;7.358;2023-07-13T22:06:38;8.77;;;5.50;;
37309;SDS011;23195;47.744;7.358;2023-07-13T22:09:20;10.47;;;5.77;;
37309;SDS011;23195;47.744;7.358;2023-07-13T22:12:10;9.13;;;5.23;;
37309;SDS011;23195;47.744;7.358;2023-07-13T22:14:56;7.30;;;5.60;;
37309;SDS011;23195;47.744;7.358;2023-07-13T22:18:05;13.60;;;6.30;;
37309;SDS011;23195;47.744;7.358;2023-07-13T22:20:49;12.30;;;6.30;;
37309;SDS011;23195;47.744;7.358;2023-07-13T22:23:28;8.93;;;6.00;;
37309;SDS011;23195;47.744;7.358;2023-07-13T22:32:44;5.93;;;4.37;;
37309;SDS011;23195;47.744;7.358;2023-07-13T22:38:40;5.13;;;3.93;;
37309;SDS011;23195;47.744;7.358;2023-07-13T22:41:33;6.33;;;3.50;;
37309;SDS011;23195;47.744;7.358;2023-07-13T22:44:17;6.53;;;3.50;;
37309;SDS011;23195;47.744;7.358;2023-07-13T22:47:01;7.50;;;3.77;;
37309;SDS011;23195;47.744;7.358;2023-07-13T22:49:41;6.10;;;4.00;;
37309;SDS011;23195;47.744;7.358;2023-07-13T22:52:12;10.47;;;4.50;;
37309;SDS011;23195;47.744;7.358;2023-07-13T22:55:01;8.27;;;4.13;;
37309;SDS011;23195;47.744;7.358;2023-07-13T22:58:04;7.40;;;4.10;;
37309;SDS011;23195;47.744;7.358;2023-07-13T23:03:47;9.20;;;4.20;;
37309;SDS011;23195;47.744;7.358;2023-07-13T23:06:31;6.47;;;3.80;;
37309;SDS011;23195;47.744;7.358;2023-07-13T23:09:20;7.50;;;4.10;;
37309;SDS011;23195;47.744;7.358;2023-07-13T23:12:18;10.57;;;3.70;;
37309;SDS011;23195;47.744;7.358;2023-07-13T23:15:00;6.67;;;3.87;;
37309;SDS011;23195;47.744;7.358;2023-07-13T23:18:01;4.53;;;3.70;;
37309;SDS011;23195;47.744;7.358;2023-07-13T23:20:37;6.20;;;3.87;;
37309;SDS011;23195;47.744;7.358;2023-07-13T23:23:08;6.27;;;3.80;;
37309;SDS011;23195;47.744;7.358;2023-07-13T23:25:51;5.40;;;3.57;;
37309;SDS011;23195;47.744;7.358;2023-07-13T23:28:29;3.70;;;3.23;;
37309;SDS011;23195;47.744;7.358;2023-07-13T23:31:15;9.70;;;3.43;;
37309;SDS011;23195;47.744;7.358;2023-07-13T23:34:18;5.77;;;3.77;;
37309;SDS011;23195;47.744;7.358;2023-07-13T23:37:01;6.53;;;3.27;;
37309;SDS011;23195;47.744;7.358;2023-07-13T23:47:07;4.20;;;3.47;;
